createdAt,value
2018-08-28T00:00:30.600Z,4.10
2018-08-28T00:02:58.838Z,4.70
2018-08-28T00:05:27.019Z,4.53
2018-08-28T00:07:56.106Z,5.00
2018-08-28T00:10:24.338Z,5.07
2018-08-28T00:12:52.561Z,4.83
2018-08-28T00:15:20.855Z,4.60
2018-08-28T00:17:49.160Z,4.33
2018-08-28T00:20:17.370Z,4.43
2018-08-28T00:22:45.606Z,4.60
2018-08-28T00:33:24.642Z,4.83
2018-08-28T00:35:53.034Z,4.50
2018-08-28T00:38:21.321Z,4.83
2018-08-28T00:40:50.664Z,3.83
2018-08-28T00:43:18.868Z,4.47
2018-08-28T00:45:47.146Z,4.20
2018-08-28T00:48:15.340Z,3.80
2018-08-28T00:50:43.561Z,4.47
2018-08-28T00:53:11.838Z,4.67
2018-08-28T00:55:41.963Z,4.80
2018-08-28T00:58:10.258Z,4.63
2018-08-28T01:00:38.443Z,4.40
2018-08-28T01:03:06.656Z,4.15
2018-08-28T01:05:35.283Z,4.67
2018-08-28T01:08:03.835Z,4.40
2018-08-28T01:10:32.101Z,4.83
2018-08-28T01:13:00.411Z,3.80
2018-08-28T01:15:28.654Z,4.15
2018-08-28T01:17:57.782Z,4.63
2018-08-28T01:20:26.012Z,3.73
2018-08-28T01:22:54.271Z,3.87
2018-08-28T01:25:22.564Z,4.30
2018-08-28T01:27:50.787Z,4.53
2018-08-28T01:30:35.459Z,4.40
2018-08-28T01:33:05.184Z,4.73
2018-08-28T01:35:33.461Z,4.73
2018-08-28T01:38:01.727Z,4.47
2018-08-28T01:40:30.354Z,4.97
2018-08-28T01:43:10.446Z,4.50
2018-08-28T01:45:38.689Z,4.30
2018-08-28T01:48:06.910Z,4.00
2018-08-28T01:50:35.203Z,4.20
2018-08-28T01:53:03.524Z,4.00
2018-08-28T01:55:31.710Z,3.80
2018-08-28T01:57:59.923Z,4.60
2018-08-28T02:00:28.246Z,4.90
2018-08-28T02:03:07.359Z,3.87
2018-08-28T02:05:35.686Z,4.40
2018-08-28T02:08:04.070Z,5.17
2018-08-28T02:10:32.294Z,4.73
2018-08-28T02:13:00.593Z,4.50
2018-08-28T02:15:28.783Z,4.33
2018-08-28T02:17:57.153Z,4.93
2018-08-28T02:20:25.393Z,4.63
2018-08-28T02:22:53.889Z,4.53
2018-08-28T02:25:22.110Z,4.67
2018-08-28T02:27:50.345Z,4.90
2018-08-28T02:30:18.561Z,4.50
2018-08-28T02:32:46.759Z,4.53
2018-08-28T02:35:15.014Z,5.03
2018-08-28T02:37:43.305Z,4.97
2018-08-28T02:40:11.535Z,5.00
2018-08-28T02:42:39.738Z,5.70
2018-08-28T02:45:08.190Z,4.77
2018-08-28T02:47:36.460Z,4.57
2018-08-28T02:50:04.711Z,4.77
2018-08-28T02:52:33.041Z,5.37
2018-08-28T02:55:01.274Z,5.10
2018-08-28T02:57:29.614Z,4.87
2018-08-28T02:59:57.834Z,4.80
2018-08-28T03:02:27.024Z,5.80
2018-08-28T03:04:55.235Z,5.70
2018-08-28T03:07:23.445Z,4.97
2018-08-28T03:09:51.692Z,5.03
2018-08-28T03:12:20.020Z,5.57
2018-08-28T03:14:48.348Z,5.47
2018-08-28T03:17:16.633Z,5.23
2018-08-28T03:19:44.801Z,5.47
2018-08-28T03:22:13.050Z,5.63
2018-08-28T03:24:41.281Z,5.87
2018-08-28T03:27:09.556Z,5.03
2018-08-28T03:29:37.826Z,5.20
2018-08-28T03:32:06.105Z,5.85
2018-08-28T03:34:34.364Z,5.10
2018-08-28T03:37:02.625Z,5.23
2018-08-28T03:39:30.850Z,5.50
2018-08-28T03:42:00.097Z,5.97
2018-08-28T03:44:28.429Z,5.47
2018-08-28T03:46:56.650Z,5.67
2018-08-28T03:49:27.730Z,6.00
2018-08-28T03:51:55.995Z,5.40
2018-08-28T03:54:24.232Z,5.83
2018-08-28T03:56:52.479Z,6.13
2018-08-28T03:59:20.731Z,5.73
2018-08-28T04:01:49.047Z,6.10
2018-08-28T04:13:26.305Z,6.77
2018-08-28T04:15:54.932Z,5.90
2018-08-28T04:18:23.240Z,5.80
2018-08-28T04:20:52.148Z,6.23
2018-08-28T04:23:20.397Z,5.80
2018-08-28T04:25:48.624Z,6.13
2018-08-28T04:28:16.831Z,5.60
2018-08-28T04:30:45.031Z,5.83
2018-08-28T04:33:13.360Z,5.70
2018-08-28T04:43:26.963Z,6.37
2018-08-28T04:45:55.316Z,5.93
2018-08-28T04:48:23.703Z,6.50
2018-08-28T04:50:51.911Z,5.60
2018-08-28T04:53:20.145Z,6.13
2018-08-28T04:55:49.113Z,6.20
2018-08-28T04:58:17.474Z,5.97
2018-08-28T05:00:45.851Z,5.90
2018-08-28T05:03:14.002Z,6.10
2018-08-28T05:05:42.357Z,5.77
2018-08-28T05:13:26.237Z,6.20
2018-08-28T05:15:54.477Z,6.00
2018-08-28T05:18:23.828Z,6.17
2018-08-28T05:20:52.214Z,5.93
2018-08-28T05:23:20.446Z,6.37
2018-08-28T05:25:48.736Z,6.70
2018-08-28T05:28:16.997Z,5.70
2018-08-28T05:30:45.268Z,5.90
2018-08-28T05:33:13.498Z,6.93
2018-08-28T05:35:41.705Z,6.27
2018-08-28T05:38:09.950Z,5.83
2018-08-28T05:53:27.466Z,6.40
2018-08-28T05:55:55.831Z,6.70
2018-08-28T05:58:23.919Z,6.17
2018-08-28T06:03:27.229Z,6.03
2018-08-28T06:06:01.877Z,5.93
2018-08-28T06:08:31.225Z,5.90
2018-08-28T06:13:26.991Z,6.58
2018-08-28T06:15:55.485Z,6.00
2018-08-28T06:18:23.958Z,6.30
2018-08-28T06:20:52.186Z,6.93
2018-08-28T06:23:20.553Z,6.27
2018-08-28T06:25:48.827Z,6.40
2018-08-28T06:28:17.226Z,5.83
2018-08-28T06:30:45.529Z,6.33
2018-08-28T06:33:13.760Z,6.60
2018-08-28T06:35:42.007Z,5.77
2018-08-28T06:38:10.408Z,6.57
2018-08-28T06:40:38.759Z,6.50
2018-08-28T06:43:07.054Z,5.67
2018-08-28T06:45:35.336Z,6.53
2018-08-28T06:48:03.585Z,5.80
2018-08-28T06:50:31.857Z,6.20
2018-08-28T06:53:00.479Z,6.23
2018-08-28T06:55:28.823Z,6.47
2018-08-28T06:57:57.378Z,5.70
2018-08-28T07:00:25.633Z,6.73
2018-08-28T07:02:53.917Z,5.65
2018-08-28T07:05:22.128Z,6.40
2018-08-28T07:13:25.998Z,6.10
2018-08-28T07:15:54.202Z,5.93
2018-08-28T07:18:22.369Z,5.13
2018-08-28T07:20:50.825Z,5.90
2018-08-28T07:23:19.508Z,6.43
2018-08-28T07:25:47.794Z,5.63
2018-08-28T07:28:16.137Z,5.97
2018-08-28T07:30:44.713Z,5.50
2018-08-28T07:33:13.828Z,6.30
2018-08-28T07:35:42.093Z,5.53
2018-08-28T07:38:10.306Z,6.23
2018-08-28T07:40:38.521Z,5.23
2018-08-28T07:43:06.760Z,5.97
2018-08-28T07:45:34.989Z,5.60
2018-08-28T07:48:03.210Z,5.83
2018-08-28T07:50:31.442Z,6.17
2018-08-28T07:52:59.757Z,5.70
2018-08-28T07:55:28.002Z,5.93
2018-08-28T07:57:56.328Z,6.00
2018-08-28T08:00:24.907Z,5.85
2018-08-28T08:02:53.234Z,5.13
2018-08-28T08:05:21.566Z,5.78
2018-08-28T08:07:49.868Z,5.50
2018-08-28T08:10:18.668Z,5.10
2018-08-28T08:13:28.423Z,5.12
2018-08-28T08:15:56.802Z,5.37
2018-08-28T08:18:25.058Z,4.83
2018-08-28T08:20:53.375Z,5.05
2018-08-28T08:23:22.041Z,5.60
2018-08-28T08:25:50.248Z,4.87
2018-08-28T08:28:18.667Z,4.90
2018-08-28T08:30:46.962Z,5.35
2018-08-28T08:33:15.706Z,5.23
2018-08-28T08:35:44.277Z,5.03
2018-08-28T08:38:12.794Z,4.83
2018-08-28T08:40:41.345Z,4.83
2018-08-28T08:43:09.725Z,4.40
2018-08-28T08:45:38.069Z,4.83
2018-08-28T08:48:06.490Z,4.85
2018-08-28T08:50:34.924Z,5.17
2018-08-28T08:53:03.342Z,4.78
2018-08-28T08:55:31.663Z,4.67
2018-08-28T08:57:59.951Z,5.47
2018-08-28T09:00:30.632Z,4.65
2018-08-28T09:02:58.972Z,4.50
2018-08-28T09:05:27.271Z,4.65
2018-08-28T09:07:55.549Z,5.30
2018-08-28T09:10:24.050Z,4.83
2018-08-28T09:12:52.555Z,5.03
2018-08-28T09:15:20.897Z,4.67
2018-08-28T09:17:49.323Z,4.30
2018-08-28T09:20:18.034Z,4.45
2018-08-28T09:23:29.458Z,4.67
2018-08-28T09:25:57.739Z,4.97
2018-08-28T09:28:25.957Z,4.55
2018-08-28T09:30:54.260Z,4.45
2018-08-28T09:33:22.663Z,4.30
2018-08-28T09:35:51.015Z,4.50
2018-08-28T09:38:19.353Z,4.55
2018-08-28T09:40:47.592Z,4.15
2018-08-28T09:43:16.689Z,4.33
2018-08-28T09:45:45.043Z,4.78
2018-08-28T09:48:13.437Z,3.87
2018-08-28T09:50:41.861Z,5.05
2018-08-28T09:53:10.045Z,4.50
2018-08-28T09:55:38.488Z,4.72
2018-08-28T09:58:06.722Z,4.53
2018-08-28T10:00:39.237Z,4.37
2018-08-28T10:03:07.986Z,3.98
2018-08-28T10:05:36.399Z,4.35
2018-08-28T10:08:04.815Z,3.60
2018-08-28T10:10:33.796Z,4.23
2018-08-28T10:13:02.105Z,4.30
2018-08-28T10:23:31.126Z,4.30
2018-08-28T10:25:59.682Z,4.00
2018-08-28T10:28:28.038Z,4.12
2018-08-28T10:30:56.358Z,3.90
2018-08-28T10:33:24.720Z,4.00
2018-08-28T10:35:53.158Z,4.53
2018-08-28T10:38:21.515Z,4.53
2018-08-28T10:40:49.927Z,4.60
2018-08-28T10:43:18.417Z,4.70
2018-08-28T10:45:46.688Z,4.62
2018-08-28T10:48:14.970Z,4.37
2018-08-28T10:50:43.869Z,3.87
2018-08-28T10:53:12.410Z,4.12
2018-08-28T10:55:40.719Z,4.45
2018-08-28T11:03:28.992Z,4.03
2018-08-28T11:05:57.162Z,4.55
2018-08-28T11:08:25.475Z,4.20
2018-08-28T11:10:53.744Z,4.55
2018-08-28T11:13:23.608Z,4.12
2018-08-28T11:15:52.000Z,4.33
2018-08-28T11:18:20.339Z,4.08
2018-08-28T11:20:48.603Z,4.17
2018-08-28T11:23:16.966Z,4.33
2018-08-28T11:25:45.168Z,4.80
2018-08-28T11:28:13.462Z,4.55
2018-08-28T11:30:48.215Z,3.95
2018-08-28T11:33:16.422Z,4.78
2018-08-28T11:35:44.760Z,4.78
2018-08-28T11:38:12.930Z,4.78
2018-08-28T11:40:41.122Z,4.70
2018-08-28T11:43:09.429Z,4.20
2018-08-28T11:45:37.706Z,4.37
2018-08-28T11:48:06.081Z,4.20
2018-08-28T11:50:34.470Z,4.30
2018-08-28T11:53:02.684Z,4.42
2018-08-28T11:55:30.990Z,4.50
2018-08-28T12:03:30.270Z,4.45
2018-08-28T12:05:58.658Z,4.67
2018-08-28T12:08:26.940Z,4.60
2018-08-28T12:10:55.225Z,5.20
2018-08-28T12:13:23.434Z,4.12
2018-08-28T12:15:51.741Z,3.95
2018-08-28T12:18:20.881Z,5.42
2018-08-28T12:20:49.137Z,4.37
2018-08-28T12:23:17.859Z,4.67
2018-08-28T12:25:46.136Z,4.45
2018-08-28T12:28:14.362Z,4.47
2018-08-28T12:30:42.594Z,4.50
2018-08-28T12:33:10.866Z,4.17
2018-08-28T12:35:39.205Z,5.30
2018-08-28T12:38:07.675Z,4.90
2018-08-28T12:40:36.831Z,4.70
2018-08-28T12:43:05.132Z,4.53
2018-08-28T12:45:33.339Z,4.92
2018-08-28T12:48:01.570Z,4.40
2018-08-28T12:50:29.898Z,4.28
2018-08-28T12:52:58.255Z,4.58
2018-08-28T12:55:26.502Z,4.67
2018-08-28T12:57:54.790Z,4.20
2018-08-28T13:00:23.139Z,4.33
2018-08-28T13:02:51.525Z,4.33
2018-08-28T13:05:19.820Z,4.72
2018-08-28T13:07:48.145Z,4.17
2018-08-28T13:10:16.488Z,4.83
2018-08-28T13:12:44.792Z,4.50
2018-08-28T13:15:12.998Z,4.72
2018-08-28T13:17:41.277Z,4.40
2018-08-28T13:23:31.630Z,4.70
2018-08-28T13:26:00.446Z,4.17
2018-08-28T13:28:28.715Z,4.03
2018-08-28T13:30:57.006Z,5.28
2018-08-28T13:33:25.277Z,4.20
2018-08-28T13:35:53.617Z,4.40
2018-08-28T13:38:22.006Z,4.65
2018-08-28T13:40:50.403Z,4.70
2018-08-28T13:43:19.202Z,4.87
2018-08-28T13:45:47.444Z,5.43
2018-08-28T13:48:15.694Z,4.95
2018-08-28T13:50:44.097Z,4.78
2018-08-28T13:53:12.657Z,4.65
2018-08-28T13:55:42.352Z,4.83
2018-08-28T13:58:10.653Z,4.92
2018-08-28T14:00:38.911Z,5.35
2018-08-28T14:03:07.171Z,4.50
2018-08-28T14:05:35.615Z,4.85
2018-08-28T14:08:03.997Z,4.62
2018-08-28T14:10:32.261Z,4.60
2018-08-28T14:13:00.746Z,5.35
2018-08-28T14:15:29.013Z,4.58
2018-08-28T14:17:57.279Z,4.72
2018-08-28T14:20:25.586Z,4.50
2018-08-28T14:22:53.838Z,4.83
2018-08-28T14:25:22.111Z,4.90
2018-08-28T14:27:50.339Z,5.80
2018-08-28T14:30:18.587Z,4.12
2018-08-28T14:32:47.025Z,4.55
2018-08-28T14:43:32.284Z,4.74
2018-08-28T14:46:00.511Z,4.10
2018-08-28T14:48:29.312Z,4.67
2018-08-28T14:50:57.892Z,4.15
2018-08-28T14:53:26.146Z,4.37
2018-08-28T14:55:54.777Z,5.08
2018-08-28T14:58:23.280Z,5.03
2018-08-28T15:00:51.496Z,4.30
2018-08-28T15:03:20.745Z,4.40
2018-08-28T15:05:49.098Z,4.50
2018-08-28T15:08:17.360Z,4.30
2018-08-28T15:10:46.017Z,4.33
2018-08-28T15:13:14.310Z,4.85
2018-08-28T15:15:42.519Z,5.15
2018-08-28T15:18:10.885Z,4.22
2018-08-28T15:20:39.169Z,5.50
2018-08-28T15:23:07.930Z,5.03
2018-08-28T15:25:36.145Z,4.47
2018-08-28T15:28:04.464Z,4.78
2018-08-28T15:30:32.997Z,4.33
2018-08-28T15:33:34.126Z,4.75
2018-08-28T15:36:03.991Z,5.22
2018-08-28T15:38:32.478Z,4.30
2018-08-28T15:41:01.305Z,4.75
2018-08-28T15:43:29.973Z,4.30
2018-08-28T15:45:58.585Z,4.92
2018-08-28T15:48:27.053Z,4.47
2018-08-28T15:50:56.448Z,4.47
2018-08-28T15:53:32.536Z,4.08
2018-08-28T15:56:12.015Z,4.75
2018-08-28T15:58:47.172Z,4.13
2018-08-28T16:01:16.163Z,4.28
2018-08-28T16:03:44.708Z,4.40
2018-08-28T16:06:13.146Z,4.00
2018-08-28T16:08:45.601Z,4.30
2018-08-28T16:11:14.055Z,4.25
2018-08-28T16:13:42.726Z,3.95
2018-08-28T16:16:13.248Z,4.08
2018-08-28T16:18:46.352Z,4.58
2018-08-28T16:21:21.219Z,3.92
2018-08-28T16:33:38.143Z,4.20
2018-08-28T16:36:07.478Z,4.08
2018-08-28T16:38:35.922Z,4.55
2018-08-28T16:41:08.541Z,4.33
2018-08-28T16:43:37.179Z,4.15
2018-08-28T16:46:07.188Z,4.37
2018-08-28T16:48:35.804Z,3.83
2018-08-28T16:51:05.108Z,4.42
2018-08-28T16:53:33.754Z,4.20
2018-08-28T16:56:17.163Z,4.20
2018-08-28T16:58:45.794Z,3.65
2018-08-28T17:01:14.741Z,3.98
2018-08-28T17:03:43.434Z,4.12
2018-08-28T17:06:11.992Z,4.10
2018-08-28T17:08:40.483Z,4.05
2018-08-28T17:11:08.836Z,4.10
2018-08-28T17:13:37.270Z,4.16
2018-08-28T17:16:05.804Z,3.87
2018-08-28T17:18:34.617Z,3.72
2018-08-28T17:21:02.933Z,4.37
2018-08-28T17:23:31.497Z,4.50
2018-08-28T17:25:59.811Z,3.77
2018-08-28T17:28:28.173Z,3.90
2018-08-28T17:30:56.541Z,4.02
2018-08-28T17:33:24.933Z,4.37
2018-08-28T17:35:53.399Z,4.17
2018-08-28T17:38:21.587Z,4.25
2018-08-28T17:40:49.876Z,3.90
2018-08-28T17:43:18.197Z,3.50
2018-08-28T17:45:46.618Z,3.90
2018-08-28T17:48:14.866Z,4.17
2018-08-28T17:50:43.204Z,3.87
2018-08-28T17:53:11.500Z,4.00
2018-08-28T17:55:39.841Z,3.98
2018-08-28T17:58:08.704Z,4.10
2018-08-28T18:00:36.948Z,3.90
2018-08-28T18:03:05.228Z,4.07
2018-08-28T18:05:33.460Z,3.60
2018-08-28T18:08:01.845Z,3.73
2018-08-28T18:10:30.128Z,4.10
2018-08-28T18:12:58.640Z,3.93
2018-08-28T18:15:26.881Z,3.92
2018-08-28T18:17:55.358Z,4.50
2018-08-28T18:20:24.585Z,4.07
2018-08-28T18:22:52.951Z,3.80
2018-08-28T18:25:21.251Z,3.97
2018-08-28T18:27:49.615Z,3.77
2018-08-28T18:30:17.805Z,3.80
2018-08-28T18:32:46.118Z,3.90
2018-08-28T18:35:15.248Z,4.57
2018-08-28T18:37:43.901Z,3.77
2018-08-28T18:40:12.130Z,3.83
2018-08-28T18:42:40.471Z,4.50
2018-08-28T18:45:08.803Z,4.43
2018-08-28T18:47:37.030Z,4.30
2018-08-28T18:50:05.581Z,4.93
2018-08-28T18:52:33.995Z,4.00
2018-08-28T18:55:02.344Z,3.70
2018-08-28T18:57:30.594Z,4.07
2018-08-28T19:00:00.441Z,4.17
2018-08-28T19:02:28.680Z,4.03
2018-08-28T19:04:57.081Z,4.07
2018-08-28T19:07:25.571Z,4.07
2018-08-28T19:09:53.926Z,4.53
2018-08-28T19:12:22.283Z,4.90
2018-08-28T19:14:50.550Z,4.37
2018-08-28T19:17:19.240Z,4.40
2018-08-28T19:19:48.061Z,4.43
2018-08-28T19:22:16.369Z,5.27
2018-08-28T19:24:44.932Z,4.73
2018-08-28T19:27:13.547Z,5.20
2018-08-28T19:29:42.920Z,5.20
2018-08-28T19:32:11.314Z,5.40
2018-08-28T19:34:39.652Z,4.80
2018-08-28T19:37:07.896Z,4.83
2018-08-28T19:39:36.352Z,6.03
2018-08-28T19:42:05.080Z,5.70
2018-08-28T19:44:33.515Z,6.13
2018-08-28T19:47:01.900Z,5.50
2018-08-28T19:49:30.272Z,5.57
2018-08-28T19:51:58.614Z,5.50
2018-08-28T19:54:26.851Z,5.13
2018-08-28T19:56:55.437Z,5.60
2018-08-28T20:02:17.137Z,5.17
2018-08-28T20:04:46.830Z,5.62
2018-08-28T20:07:15.311Z,5.50
2018-08-28T20:09:44.598Z,5.90
2018-08-28T20:12:13.452Z,5.03
2018-08-28T20:14:44.037Z,5.57
2018-08-28T20:17:12.247Z,5.53
2018-08-28T20:19:41.418Z,6.60
2018-08-28T20:22:12.504Z,5.63
2018-08-28T20:24:41.200Z,5.90
2018-08-28T20:27:11.165Z,5.43
2018-08-28T20:29:39.739Z,5.63
2018-08-28T20:41:08.051Z,5.74
2018-08-28T20:43:36.660Z,6.47
2018-08-28T20:46:05.338Z,6.43
2018-08-28T20:48:33.628Z,6.78
2018-08-28T20:51:02.579Z,6.63
2018-08-28T20:53:31.818Z,6.27
2018-08-28T20:56:00.155Z,6.20
2018-08-28T20:58:28.376Z,6.47
2018-08-28T21:00:56.542Z,6.40
2018-08-28T21:03:24.846Z,6.40
2018-08-28T21:05:53.402Z,6.10
2018-08-28T21:08:21.798Z,6.37
2018-08-28T21:10:50.090Z,6.30
2018-08-28T21:13:18.436Z,5.80
2018-08-28T21:15:46.838Z,6.37
2018-08-28T21:18:15.419Z,6.50
2018-08-28T21:20:44.167Z,6.50
2018-08-28T21:23:12.416Z,5.87
2018-08-28T21:25:40.606Z,5.63
2018-08-28T21:28:08.911Z,6.57
2018-08-28T21:30:37.444Z,7.00
2018-08-28T21:33:05.805Z,6.80
2018-08-28T21:35:34.138Z,6.60
2018-08-28T21:38:02.414Z,6.57
2018-08-28T21:40:30.695Z,5.90
2018-08-28T21:42:59.090Z,6.90
2018-08-28T21:45:27.338Z,6.90
2018-08-28T21:47:55.573Z,6.90
2018-08-28T21:50:23.874Z,6.78
2018-08-28T21:52:52.395Z,6.90
2018-08-28T21:55:21.845Z,6.63
2018-08-28T21:57:50.198Z,6.43
2018-08-28T22:00:18.474Z,7.07
2018-08-28T22:02:46.675Z,7.07
2018-08-28T22:05:15.045Z,7.45
2018-08-28T22:07:43.442Z,8.15
2018-08-28T22:10:11.877Z,8.17
2018-08-28T22:12:40.736Z,8.30
2018-08-28T22:15:14.101Z,8.07
2018-08-28T22:21:09.215Z,7.53
2018-08-28T22:23:37.429Z,7.73
2018-08-28T22:26:05.669Z,6.70
2018-08-28T22:28:33.964Z,7.50
2018-08-28T22:31:02.206Z,7.23
2018-08-28T22:33:30.518Z,7.80
2018-08-28T22:35:59.691Z,7.83
2018-08-28T22:38:27.920Z,7.63
2018-08-28T22:40:56.486Z,6.57
2018-08-28T22:43:24.977Z,7.33
2018-08-28T22:45:53.405Z,6.93
2018-08-28T22:48:21.892Z,7.97
2018-08-28T22:50:50.323Z,7.10
2018-08-28T22:53:18.742Z,7.30
2018-08-28T22:55:47.265Z,6.37
2018-08-28T22:58:16.816Z,7.17
2018-08-28T23:00:45.268Z,6.63
2018-08-28T23:03:14.160Z,6.53
2018-08-28T23:05:42.465Z,6.70
2018-08-28T23:08:10.780Z,6.70
2018-08-28T23:10:39.009Z,6.63
2018-08-28T23:13:07.230Z,7.10
2018-08-28T23:15:35.693Z,7.40
2018-08-28T23:18:03.891Z,6.60
2018-08-28T23:20:32.206Z,6.63
2018-08-28T23:23:00.401Z,7.07
2018-08-28T23:25:28.624Z,6.33
2018-08-28T23:27:56.785Z,6.80
2018-08-28T23:30:25.051Z,6.37
2018-08-28T23:32:53.340Z,6.17
2018-08-28T23:35:21.576Z,6.10
2018-08-28T23:41:09.395Z,5.77
2018-08-28T23:43:37.645Z,6.77
2018-08-28T23:46:05.866Z,6.67
2018-08-28T23:48:34.158Z,6.40
